Terminal Aerodrome Forecast
Issued by NWS

Home | Current Version | Previous Version | Text Only | Print | Product List | Glossary On
Versions: 1 2 3 4 5 6 7 8 9 10 11 12 13 14 15 16 17 18 19
808
FTUS42 KFFC 241930 AAA
TAFRYY
TAF AMD
KRYY 241930Z 2420/2518 16010G17KT P6SM FEW060 BKN250
     FM250000 13005KT P6SM FEW150 SCT250
     FM250900 14004KT P6SM SCT012 BKN025
     FM251500 16009KT P6SM BKN035=

USA.gov is the U.S. government's official web portal to all federal, state and local government web resources and services.